sensor_id;sensor_type;location;lat;lon;timestamp;P1;durP1;ratioP1;P2;durP2;ratioP2
77984;SDS011;67177;47.240;-1.546;2023-02-04T00:02:23;5.27;;;1.40;;
77984;SDS011;67177;47.240;-1.546;2023-02-04T00:04:48;4.80;;;1.75;;
77984;SDS011;67177;47.240;-1.546;2023-02-04T00:07:14;4.87;;;1.60;;
77984;SDS011;67177;47.240;-1.546;2023-02-04T00:09:42;5.15;;;1.60;;
77984;SDS011;67177;47.240;-1.546;2023-02-04T00:12:10;4.25;;;1.40;;
77984;SDS011;67177;47.240;-1.546;2023-02-04T00:14:36;3.67;;;1.17;;
77984;SDS011;67177;47.240;-1.546;2023-02-04T00:17:02;4.30;;;1.33;;
77984;SDS011;67177;47.240;-1.546;2023-02-04T00:19:27;4.17;;;1.40;;
77984;SDS011;67177;47.240;-1.546;2023-02-04T00:21:53;4.47;;;1.60;;
77984;SDS011;67177;47.240;-1.546;2023-02-04T00:24:19;3.93;;;1.20;;
77984;SDS011;67177;47.240;-1.546;2023-02-04T00:26:44;4.40;;;1.47;;
77984;SDS011;67177;47.240;-1.546;2023-02-04T00:29:10;4.13;;;1.35;;
77984;SDS011;67177;47.240;-1.546;2023-02-04T00:31:35;3.77;;;1.20;;
77984;SDS011;67177;47.240;-1.546;2023-02-04T00:34:01;4.20;;;1.50;;
77984;SDS011;67177;47.240;-1.546;2023-02-04T00:36:27;4.50;;;1.33;;
77984;SDS011;67177;47.240;-1.546;2023-02-04T00:38:53;4.05;;;1.30;;
77984;SDS011;67177;47.240;-1.546;2023-02-04T00:41:18;4.23;;;1.20;;
77984;SDS011;67177;47.240;-1.546;2023-02-04T00:43:45;4.05;;;1.20;;
77984;SDS011;67177;47.240;-1.546;2023-02-04T00:46:10;4.50;;;1.50;;
77984;SDS011;67177;47.240;-1.546;2023-02-04T00:48:36;5.32;;;1.70;;
77984;SDS011;67177;47.240;-1.546;2023-02-04T00:51:02;4.10;;;1.50;;
77984;SDS011;67177;47.240;-1.546;2023-02-04T00:53:27;3.97;;;1.30;;
77984;SDS011;67177;47.240;-1.546;2023-02-04T00:55:53;3.97;;;1.27;;
77984;SDS011;67177;47.240;-1.546;2023-02-04T00:58:18;3.38;;;1.08;;
77984;SDS011;67177;47.240;-1.546;2023-02-04T01:00:44;4.95;;;1.38;;
77984;SDS011;67177;47.240;-1.546;2023-02-04T01:03:10;3.97;;;1.17;;
77984;SDS011;67177;47.240;-1.546;2023-02-04T01:05:36;3.75;;;1.30;;
77984;SDS011;67177;47.240;-1.546;2023-02-04T01:08:02;4.13;;;1.20;;
77984;SDS011;67177;47.240;-1.546;2023-02-04T01:10:27;4.10;;;1.30;;
77984;SDS011;67177;47.240;-1.546;2023-02-04T01:12:53;4.95;;;1.38;;
77984;SDS011;67177;47.240;-1.546;2023-02-04T01:15:19;3.93;;;1.23;;
77984;SDS011;67177;47.240;-1.546;2023-02-04T01:17:46;4.20;;;1.30;;
77984;SDS011;67177;47.240;-1.546;2023-02-04T01:20:12;3.88;;;1.17;;
77984;SDS011;67177;47.240;-1.546;2023-02-04T01:22:38;3.63;;;1.20;;
77984;SDS011;67177;47.240;-1.546;2023-02-04T01:25:04;3.72;;;1.30;;
77984;SDS011;67177;47.240;-1.546;2023-02-04T01:27:30;4.20;;;1.30;;
77984;SDS011;67177;47.240;-1.546;2023-02-04T01:29:55;4.32;;;1.30;;
77984;SDS011;67177;47.240;-1.546;2023-02-04T01:32:21;4.07;;;1.50;;
77984;SDS011;67177;47.240;-1.546;2023-02-04T01:34:47;3.85;;;1.40;;
77984;SDS011;67177;47.240;-1.546;2023-02-04T01:37:12;4.37;;;1.13;;
77984;SDS011;67177;47.240;-1.546;2023-02-04T01:39:38;3.70;;;1.10;;
77984;SDS011;67177;47.240;-1.546;2023-02-04T01:42:03;3.45;;;1.08;;
77984;SDS011;67177;47.240;-1.546;2023-02-04T01:44:30;4.20;;;1.20;;
77984;SDS011;67177;47.240;-1.546;2023-02-04T01:46:55;3.53;;;1.10;;
77984;SDS011;67177;47.240;-1.546;2023-02-04T01:49:21;3.97;;;1.20;;
77984;SDS011;67177;47.240;-1.546;2023-02-04T01:51:48;3.88;;;1.20;;
77984;SDS011;67177;47.240;-1.546;2023-02-04T01:54:14;3.67;;;1.10;;
77984;SDS011;67177;47.240;-1.546;2023-02-04T01:56:42;4.18;;;1.30;;
77984;SDS011;67177;47.240;-1.546;2023-02-04T01:59:10;3.95;;;1.33;;
77984;SDS011;67177;47.240;-1.546;2023-02-04T02:01:47;3.28;;;1.02;;
77984;SDS011;67177;47.240;-1.546;2023-02-04T02:04:16;3.50;;;1.10;;
77984;SDS011;67177;47.240;-1.546;2023-02-04T02:06:46;4.13;;;1.40;;
77984;SDS011;67177;47.240;-1.546;2023-02-04T02:09:15;4.28;;;1.20;;
77984;SDS011;67177;47.240;-1.546;2023-02-04T02:11:41;3.03;;;1.08;;
77984;SDS011;67177;47.240;-1.546;2023-02-04T02:14:07;3.97;;;1.30;;
77984;SDS011;67177;47.240;-1.546;2023-02-04T02:16:33;3.70;;;1.15;;
77984;SDS011;67177;47.240;-1.546;2023-02-04T02:18:58;3.50;;;1.20;;
77984;SDS011;67177;47.240;-1.546;2023-02-04T02:21:37;3.80;;;1.03;;
77984;SDS011;67177;47.240;-1.546;2023-02-04T02:24:39;3.40;;;0.98;;
77984;SDS011;67177;47.240;-1.546;2023-02-04T02:27:00;3.72;;;1.10;;
77984;SDS011;67177;47.240;-1.546;2023-02-04T02:29:28;3.13;;;1.00;;
77984;SDS011;67177;47.240;-1.546;2023-02-04T02:31:54;3.20;;;1.00;;
77984;SDS011;67177;47.240;-1.546;2023-02-04T02:34:22;2.80;;;0.80;;
77984;SDS011;67177;47.240;-1.546;2023-02-04T02:36:49;2.67;;;0.75;;
77984;SDS011;67177;47.240;-1.546;2023-02-04T02:39:15;3.17;;;0.90;;
77984;SDS011;67177;47.240;-1.546;2023-02-04T02:41:42;2.42;;;0.70;;
77984;SDS011;67177;47.240;-1.546;2023-02-04T02:44:08;2.55;;;0.70;;
77984;SDS011;67177;47.240;-1.546;2023-02-04T02:46:36;2.70;;;0.70;;
77984;SDS011;67177;47.240;-1.546;2023-02-04T02:49:02;2.93;;;0.80;;
77984;SDS011;67177;47.240;-1.546;2023-02-04T02:51:27;2.55;;;0.70;;
77984;SDS011;67177;47.240;-1.546;2023-02-04T02:53:53;2.33;;;0.70;;
77984;SDS011;67177;47.240;-1.546;2023-02-04T02:56:19;2.25;;;0.65;;
77984;SDS011;67177;47.240;-1.546;2023-02-04T02:58:45;1.70;;;0.60;;
77984;SDS011;67177;47.240;-1.546;2023-02-04T03:01:10;2.38;;;0.70;;
77984;SDS011;67177;47.240;-1.546;2023-02-04T03:03:37;2.17;;;0.70;;
77984;SDS011;67177;47.240;-1.546;2023-02-04T03:06:08;2.00;;;0.50;;
77984;SDS011;67177;47.240;-1.546;2023-02-04T03:08:34;2.03;;;0.60;;
77984;SDS011;67177;47.240;-1.546;2023-02-04T03:11:00;2.05;;;0.60;;
77984;SDS011;67177;47.240;-1.546;2023-02-04T03:13:26;2.37;;;0.70;;
77984;SDS011;67177;47.240;-1.546;2023-02-04T03:15:52;2.08;;;0.60;;
77984;SDS011;67177;47.240;-1.546;2023-02-04T03:18:18;1.90;;;0.50;;
77984;SDS011;67177;47.240;-1.546;2023-02-04T03:20:45;2.03;;;0.60;;
77984;SDS011;67177;47.240;-1.546;2023-02-04T03:23:12;2.33;;;0.60;;
77984;SDS011;67177;47.240;-1.546;2023-02-04T03:25:38;2.35;;;0.75;;
77984;SDS011;67177;47.240;-1.546;2023-02-04T03:28:04;2.08;;;0.60;;
77984;SDS011;67177;47.240;-1.546;2023-02-04T03:30:30;2.03;;;0.50;;
77984;SDS011;67177;47.240;-1.546;2023-02-04T03:32:56;1.67;;;0.50;;
77984;SDS011;67177;47.240;-1.546;2023-02-04T03:35:21;2.60;;;0.63;;
77984;SDS011;67177;47.240;-1.546;2023-02-04T03:37:47;2.25;;;0.70;;
77984;SDS011;67177;47.240;-1.546;2023-02-04T03:40:13;2.37;;;0.70;;
77984;SDS011;67177;47.240;-1.546;2023-02-04T03:42:39;2.80;;;0.70;;
77984;SDS011;67177;47.240;-1.546;2023-02-04T03:45:05;2.15;;;0.68;;
77984;SDS011;67177;47.240;-1.546;2023-02-04T03:47:31;2.27;;;0.60;;
77984;SDS011;67177;47.240;-1.546;2023-02-04T03:49:57;2.08;;;0.63;;
77984;SDS011;67177;47.240;-1.546;2023-02-04T03:52:22;2.00;;;0.60;;
77984;SDS011;67177;47.240;-1.546;2023-02-04T03:54:48;1.63;;;0.60;;
77984;SDS011;67177;47.240;-1.546;2023-02-04T03:57:13;1.75;;;0.60;;
77984;SDS011;67177;47.240;-1.546;2023-02-04T03:59:42;1.67;;;0.50;;
77984;SDS011;67177;47.240;-1.546;2023-02-04T04:02:08;2.07;;;0.60;;
77984;SDS011;67177;47.240;-1.546;2023-02-04T04:04:33;1.70;;;0.60;;
77984;SDS011;67177;47.240;-1.546;2023-02-04T04:06:59;2.43;;;0.67;;
77984;SDS011;67177;47.240;-1.546;2023-02-04T04:09:25;2.58;;;0.70;;
77984;SDS011;67177;47.240;-1.546;2023-02-04T04:11:50;2.40;;;0.60;;
77984;SDS011;67177;47.240;-1.546;2023-02-04T04:14:16;2.00;;;0.60;;
77984;SDS011;67177;47.240;-1.546;2023-02-04T04:16:41;2.25;;;0.70;;
77984;SDS011;67177;47.240;-1.546;2023-02-04T04:19:07;2.50;;;0.60;;
77984;SDS011;67177;47.240;-1.546;2023-02-04T04:21:33;2.75;;;0.80;;
77984;SDS011;67177;47.240;-1.546;2023-02-04T04:23:58;1.87;;;0.50;;
77984;SDS011;67177;47.240;-1.546;2023-02-04T04:26:24;2.55;;;0.70;;
77984;SDS011;67177;47.240;-1.546;2023-02-04T04:28:50;2.10;;;0.60;;
77984;SDS011;67177;47.240;-1.546;2023-02-04T04:31:16;1.90;;;0.50;;
77984;SDS011;67177;47.240;-1.546;2023-02-04T04:33:41;2.17;;;0.60;;
77984;SDS011;67177;47.240;-1.546;2023-02-04T04:36:07;2.10;;;0.60;;
77984;SDS011;67177;47.240;-1.546;2023-02-04T04:38:33;2.08;;;0.60;;
77984;SDS011;67177;47.240;-1.546;2023-02-04T04:40:58;2.33;;;0.70;;
77984;SDS011;67177;47.240;-1.546;2023-02-04T04:43:24;2.50;;;0.60;;
77984;SDS011;67177;47.240;-1.546;2023-02-04T04:45:51;3.35;;;0.88;;
77984;SDS011;67177;47.240;-1.546;2023-02-04T04:48:16;3.58;;;0.80;;
77984;SDS011;67177;47.240;-1.546;2023-02-04T04:50:42;4.00;;;0.80;;
77984;SDS011;67177;47.240;-1.546;2023-02-04T04:53:08;2.73;;;0.80;;
77984;SDS011;67177;47.240;-1.546;2023-02-04T04:55:38;2.78;;;0.82;;
77984;SDS011;67177;47.240;-1.546;2023-02-04T04:58:04;2.80;;;0.80;;
77984;SDS011;67177;47.240;-1.546;2023-02-04T05:00:32;3.60;;;0.90;;
77984;SDS011;67177;47.240;-1.546;2023-02-04T05:02:58;2.72;;;0.80;;
77984;SDS011;67177;47.240;-1.546;2023-02-04T05:05:23;2.63;;;0.80;;
77984;SDS011;67177;47.240;-1.546;2023-02-04T05:07:49;2.60;;;0.70;;
77984;SDS011;67177;47.240;-1.546;2023-02-04T05:10:15;2.80;;;0.70;;
77984;SDS011;67177;47.240;-1.546;2023-02-04T05:12:41;2.22;;;0.70;;
77984;SDS011;67177;47.240;-1.546;2023-02-04T05:15:06;2.43;;;0.77;;
77984;SDS011;67177;47.240;-1.546;2023-02-04T05:17:32;1.95;;;0.60;;
77984;SDS011;67177;47.240;-1.546;2023-02-04T05:19:58;2.00;;;0.70;;
77984;SDS011;67177;47.240;-1.546;2023-02-04T05:22:24;3.03;;;0.85;;
77984;SDS011;67177;47.240;-1.546;2023-02-04T05:24:49;2.97;;;0.90;;
77984;SDS011;67177;47.240;-1.546;2023-02-04T05:27:15;2.80;;;0.70;;
77984;SDS011;67177;47.240;-1.546;2023-02-04T05:29:41;2.30;;;0.68;;
77984;SDS011;67177;47.240;-1.546;2023-02-04T05:32:06;2.47;;;0.70;;
77984;SDS011;67177;47.240;-1.546;2023-02-04T05:34:32;2.10;;;0.60;;
77984;SDS011;67177;47.240;-1.546;2023-02-04T05:36:57;2.10;;;0.60;;
77984;SDS011;67177;47.240;-1.546;2023-02-04T05:39:23;1.97;;;0.60;;
77984;SDS011;67177;47.240;-1.546;2023-02-04T05:41:49;2.30;;;0.70;;
77984;SDS011;67177;47.240;-1.546;2023-02-04T05:44:14;1.87;;;0.60;;
77984;SDS011;67177;47.240;-1.546;2023-02-04T05:46:40;1.83;;;0.50;;
77984;SDS011;67177;47.240;-1.546;2023-02-04T05:49:06;1.80;;;0.63;;
77984;SDS011;67177;47.240;-1.546;2023-02-04T05:51:32;2.22;;;0.50;;
77984;SDS011;67177;47.240;-1.546;2023-02-04T05:53:57;1.53;;;0.53;;
77984;SDS011;67177;47.240;-1.546;2023-02-04T05:56:23;2.05;;;0.50;;
77984;SDS011;67177;47.240;-1.546;2023-02-04T05:58:52;1.60;;;0.53;;
77984;SDS011;67177;47.240;-1.546;2023-02-04T06:01:17;2.13;;;0.50;;
77984;SDS011;67177;47.240;-1.546;2023-02-04T06:03:43;2.03;;;0.60;;
77984;SDS011;67177;47.240;-1.546;2023-02-04T06:06:09;2.15;;;0.57;;
77984;SDS011;67177;47.240;-1.546;2023-02-04T06:08:34;2.27;;;0.70;;
77984;SDS011;67177;47.240;-1.546;2023-02-04T06:11:00;1.95;;;0.60;;
77984;SDS011;67177;47.240;-1.546;2023-02-04T06:13:26;1.93;;;0.50;;
77984;SDS011;67177;47.240;-1.546;2023-02-04T06:15:51;1.63;;;0.60;;
77984;SDS011;67177;47.240;-1.546;2023-02-04T06:18:17;1.27;;;0.50;;
77984;SDS011;67177;47.240;-1.546;2023-02-04T06:20:42;1.20;;;0.40;;
77984;SDS011;67177;47.240;-1.546;2023-02-04T06:23:08;1.60;;;0.50;;
77984;SDS011;67177;47.240;-1.546;2023-02-04T06:25:34;1.83;;;0.60;;
77984;SDS011;67177;47.240;-1.546;2023-02-04T06:27:59;1.80;;;0.60;;
77984;SDS011;67177;47.240;-1.546;2023-02-04T06:30:25;2.10;;;0.50;;
77984;SDS011;67177;47.240;-1.546;2023-02-04T06:32:51;1.92;;;0.55;;
77984;SDS011;67177;47.240;-1.546;2023-02-04T06:35:16;2.53;;;0.60;;
77984;SDS011;67177;47.240;-1.546;2023-02-04T06:37:42;2.17;;;0.60;;
77984;SDS011;67177;47.240;-1.546;2023-02-04T06:40:08;2.13;;;0.60;;
77984;SDS011;67177;47.240;-1.546;2023-02-04T06:42:35;1.83;;;0.52;;
77984;SDS011;67177;47.240;-1.546;2023-02-04T06:45:01;2.17;;;0.60;;
77984;SDS011;67177;47.240;-1.546;2023-02-04T06:47:27;2.00;;;0.60;;
77984;SDS011;67177;47.240;-1.546;2023-02-04T06:49:52;2.05;;;0.50;;
77984;SDS011;67177;47.240;-1.546;2023-02-04T06:52:18;1.70;;;0.60;;
77984;SDS011;67177;47.240;-1.546;2023-02-04T06:54:43;1.63;;;0.60;;
77984;SDS011;67177;47.240;-1.546;2023-02-04T06:57:09;2.05;;;0.60;;
77984;SDS011;67177;47.240;-1.546;2023-02-04T06:59:36;1.65;;;0.50;;
77984;SDS011;67177;47.240;-1.546;2023-02-04T07:02:04;1.80;;;0.60;;
77984;SDS011;67177;47.240;-1.546;2023-02-04T07:04:31;2.45;;;0.70;;
77984;SDS011;67177;47.240;-1.546;2023-02-04T07:06:57;2.08;;;0.60;;
77984;SDS011;67177;47.240;-1.546;2023-02-04T07:09:22;1.80;;;0.60;;
77984;SDS011;67177;47.240;-1.546;2023-02-04T07:11:48;2.38;;;0.70;;
77984;SDS011;67177;47.240;-1.546;2023-02-04T07:14:13;2.47;;;0.70;;
77984;SDS011;67177;47.240;-1.546;2023-02-04T07:16:39;3.65;;;0.60;;
77984;SDS011;67177;47.240;-1.546;2023-02-04T07:19:05;2.33;;;0.63;;
77984;SDS011;67177;47.240;-1.546;2023-02-04T07:21:30;2.40;;;0.60;;
77984;SDS011;67177;47.240;-1.546;2023-02-04T07:23:56;2.35;;;0.70;;
77984;SDS011;67177;47.240;-1.546;2023-02-04T07:26:22;2.87;;;0.70;;
77984;SDS011;67177;47.240;-1.546;2023-02-04T07:28:47;1.70;;;0.43;;
77984;SDS011;67177;47.240;-1.546;2023-02-04T07:31:13;2.30;;;0.70;;
77984;SDS011;67177;47.240;-1.546;2023-02-04T07:33:39;2.95;;;0.80;;
77984;SDS011;67177;47.240;-1.546;2023-02-04T07:36:05;2.53;;;0.80;;
77984;SDS011;67177;47.240;-1.546;2023-02-04T07:38:31;2.50;;;0.80;;
77984;SDS011;67177;47.240;-1.546;2023-02-04T07:40:57;2.72;;;0.90;;
77984;SDS011;67177;47.240;-1.546;2023-02-04T07:43:22;3.13;;;0.80;;
77984;SDS011;67177;47.240;-1.546;2023-02-04T07:45:48;3.15;;;0.80;;
77984;SDS011;67177;47.240;-1.546;2023-02-04T07:48:14;2.30;;;0.70;;
77984;SDS011;67177;47.240;-1.546;2023-02-04T07:50:40;2.42;;;0.60;;
77984;SDS011;67177;47.240;-1.546;2023-02-04T07:53:05;2.97;;;0.70;;
77984;SDS011;67177;47.240;-1.546;2023-02-04T07:55:31;1.83;;;0.60;;
77984;SDS011;67177;47.240;-1.546;2023-02-04T07:57:57;1.80;;;0.60;;
77984;SDS011;67177;47.240;-1.546;2023-02-04T08:00:23;1.75;;;0.50;;
77984;SDS011;67177;47.240;-1.546;2023-02-04T08:02:48;1.90;;;0.60;;
77984;SDS011;67177;47.240;-1.546;2023-02-04T08:05:14;1.70;;;0.50;;
77984;SDS011;67177;47.240;-1.546;2023-02-04T08:07:40;1.60;;;0.50;;
77984;SDS011;67177;47.240;-1.546;2023-02-04T08:10:06;2.03;;;0.50;;
77984;SDS011;67177;47.240;-1.546;2023-02-04T08:12:34;1.92;;;0.57;;
77984;SDS011;67177;47.240;-1.546;2023-02-04T08:15:00;1.65;;;0.57;;
77984;SDS011;67177;47.240;-1.546;2023-02-04T08:17:25;2.77;;;0.60;;
77984;SDS011;67177;47.240;-1.546;2023-02-04T08:19:52;1.98;;;0.50;;
77984;SDS011;67177;47.240;-1.546;2023-02-04T08:22:17;1.92;;;0.50;;
77984;SDS011;67177;47.240;-1.546;2023-02-04T08:24:43;2.13;;;0.50;;
77984;SDS011;67177;47.240;-1.546;2023-02-04T08:27:08;2.37;;;0.67;;
77984;SDS011;67177;47.240;-1.546;2023-02-04T08:29:34;2.25;;;0.50;;
77984;SDS011;67177;47.240;-1.546;2023-02-04T08:32:00;2.60;;;0.60;;
77984;SDS011;67177;47.240;-1.546;2023-02-04T08:34:26;1.92;;;0.50;;
77984;SDS011;67177;47.240;-1.546;2023-02-04T08:36:52;2.15;;;0.70;;
77984;SDS011;67177;47.240;-1.546;2023-02-04T08:39:17;2.00;;;0.70;;
77984;SDS011;67177;47.240;-1.546;2023-02-04T08:41:43;2.58;;;0.80;;
77984;SDS011;67177;47.240;-1.546;2023-02-04T08:44:09;2.53;;;0.80;;
77984;SDS011;67177;47.240;-1.546;2023-02-04T08:46:34;1.73;;;0.50;;
77984;SDS011;67177;47.240;-1.546;2023-02-04T08:49:00;2.60;;;0.70;;
77984;SDS011;67177;47.240;-1.546;2023-02-04T08:51:26;2.03;;;0.60;;
77984;SDS011;67177;47.240;-1.546;2023-02-04T08:53:51;2.08;;;0.60;;
77984;SDS011;67177;47.240;-1.546;2023-02-04T08:56:17;3.90;;;0.80;;
77984;SDS011;67177;47.240;-1.546;2023-02-04T08:58:44;2.72;;;0.70;;
77984;SDS011;67177;47.240;-1.546;2023-02-04T09:01:12;2.45;;;0.65;;
77984;SDS011;67177;47.240;-1.546;2023-02-04T09:03:38;2.15;;;0.63;;
77984;SDS011;67177;47.240;-1.546;2023-02-04T09:06:05;2.63;;;0.70;;
77984;SDS011;67177;47.240;-1.546;2023-02-04T09:08:31;2.97;;;0.75;;
77984;SDS011;67177;47.240;-1.546;2023-02-04T09:10:57;2.15;;;0.70;;
77984;SDS011;67177;47.240;-1.546;2023-02-04T09:13:23;2.13;;;0.60;;
77984;SDS011;67177;47.240;-1.546;2023-02-04T09:15:49;3.60;;;1.10;;
77984;SDS011;67177;47.240;-1.546;2023-02-04T09:18:16;2.50;;;0.90;;
77984;SDS011;67177;47.240;-1.546;2023-02-04T09:20:46;2.70;;;0.70;;
77984;SDS011;67177;47.240;-1.546;2023-02-04T09:23:15;3.57;;;1.00;;
77984;SDS011;67177;47.240;-1.546;2023-02-04T09:25:42;3.28;;;1.00;;
77984;SDS011;67177;47.240;-1.546;2023-02-04T09:28:09;2.88;;;0.90;;
77984;SDS011;67177;47.240;-1.546;2023-02-04T09:30:37;3.58;;;1.15;;
77984;SDS011;67177;47.240;-1.546;2023-02-04T09:33:03;3.53;;;1.10;;
77984;SDS011;67177;47.240;-1.546;2023-02-04T09:35:29;2.92;;;0.80;;
77984;SDS011;67177;47.240;-1.546;2023-02-04T09:37:54;3.83;;;1.13;;
77984;SDS011;67177;47.240;-1.546;2023-02-04T09:40:20;2.67;;;0.73;;
77984;SDS011;67177;47.240;-1.546;2023-02-04T09:42:47;2.88;;;0.80;;
77984;SDS011;67177;47.240;-1.546;2023-02-04T09:45:18;3.00;;;0.70;;
77984;SDS011;67177;47.240;-1.546;2023-02-04T09:47:49;2.72;;;0.80;;
77984;SDS011;67177;47.240;-1.546;2023-02-04T09:50:16;2.80;;;0.80;;
77984;SDS011;67177;47.240;-1.546;2023-02-04T09:52:45;2.85;;;0.82;;
77984;SDS011;67177;47.240;-1.546;2023-02-04T09:55:13;2.45;;;0.80;;
77984;SDS011;67177;47.240;-1.546;2023-02-04T09:57:40;3.20;;;0.90;;
77984;SDS011;67177;47.240;-1.546;2023-02-04T10:00:27;4.35;;;1.30;;
77984;SDS011;67177;47.240;-1.546;2023-02-04T10:02:55;4.30;;;1.15;;
77984;SDS011;67177;47.240;-1.546;2023-02-04T10:05:26;4.13;;;1.20;;
77984;SDS011;67177;47.240;-1.546;2023-02-04T10:07:53;3.27;;;0.83;;
77984;SDS011;67177;47.240;-1.546;2023-02-04T10:10:21;3.63;;;1.00;;
77984;SDS011;67177;47.240;-1.546;2023-02-04T10:12:50;3.45;;;1.00;;
77984;SDS011;67177;47.240;-1.546;2023-02-04T10:15:20;3.15;;;0.93;;
77984;SDS011;67177;47.240;-1.546;2023-02-04T10:17:47;2.87;;;0.70;;
77984;SDS011;67177;47.240;-1.546;2023-02-04T10:20:18;3.42;;;1.10;;
77984;SDS011;67177;47.240;-1.546;2023-02-04T10:22:46;4.32;;;1.15;;
77984;SDS011;67177;47.240;-1.546;2023-02-04T10:25:14;3.92;;;1.27;;
77984;SDS011;67177;47.240;-1.546;2023-02-04T10:30:24;3.13;;;0.93;;
77984;SDS011;67177;47.240;-1.546;2023-02-04T10:32:52;4.22;;;1.23;;
77984;SDS011;67177;47.240;-1.546;2023-02-04T10:35:19;3.60;;;0.90;;
77984;SDS011;67177;47.240;-1.546;2023-02-04T10:37:46;4.72;;;0.95;;
77984;SDS011;67177;47.240;-1.546;2023-02-04T10:40:29;3.50;;;1.00;;
77984;SDS011;67177;47.240;-1.546;2023-02-04T10:42:57;3.80;;;1.10;;
77984;SDS011;67177;47.240;-1.546;2023-02-04T10:45:24;4.60;;;0.90;;
77984;SDS011;67177;47.240;-1.546;2023-02-04T10:47:53;2.90;;;1.00;;
77984;SDS011;67177;47.240;-1.546;2023-02-04T10:50:22;3.28;;;0.90;;
77984;SDS011;67177;47.240;-1.546;2023-02-04T10:52:54;2.97;;;0.88;;
77984;SDS011;67177;47.240;-1.546;2023-02-04T10:55:43;3.40;;;0.90;;
77984;SDS011;67177;47.240;-1.546;2023-02-04T10:58:11;2.65;;;0.80;;
77984;SDS011;67177;47.240;-1.546;2023-02-04T11:00:40;2.95;;;0.80;;
77984;SDS011;67177;47.240;-1.546;2023-02-04T11:03:08;3.90;;;0.95;;
77984;SDS011;67177;47.240;-1.546;2023-02-04T11:05:36;3.25;;;0.95;;
77984;SDS011;67177;47.240;-1.546;2023-02-04T11:08:02;3.90;;;1.10;;
77984;SDS011;67177;47.240;-1.546;2023-02-04T11:10:43;3.33;;;0.90;;
77984;SDS011;67177;47.240;-1.546;2023-02-04T11:13:18;3.47;;;1.10;;
77984;SDS011;67177;47.240;-1.546;2023-02-04T11:15:54;4.30;;;1.35;;
77984;SDS011;67177;47.240;-1.546;2023-02-04T11:18:41;3.67;;;1.20;;
77984;SDS011;67177;47.240;-1.546;2023-02-04T11:21:12;3.38;;;1.00;;
77984;SDS011;67177;47.240;-1.546;2023-02-04T11:26:34;2.67;;;0.80;;
77984;SDS011;67177;47.240;-1.546;2023-02-04T11:39:25;1.67;;;0.57;;
77984;SDS011;67177;47.240;-1.546;2023-02-04T11:41:52;1.58;;;0.50;;
77984;SDS011;67177;47.240;-1.546;2023-02-04T11:44:18;2.70;;;0.60;;
77984;SDS011;67177;47.240;-1.546;2023-02-04T11:46:50;2.33;;;0.60;;
77984;SDS011;67177;47.240;-1.546;2023-02-04T11:49:19;2.75;;;0.80;;
77984;SDS011;67177;47.240;-1.546;2023-02-04T11:51:46;3.58;;;0.80;;
77984;SDS011;67177;47.240;-1.546;2023-02-04T11:54:13;2.92;;;0.88;;
77984;SDS011;67177;47.240;-1.546;2023-02-04T11:56:43;3.10;;;0.87;;
77984;SDS011;67177;47.240;-1.546;2023-02-04T11:59:10;3.88;;;0.80;;
77984;SDS011;67177;47.240;-1.546;2023-02-04T12:01:37;1.73;;;0.50;;
77984;SDS011;67177;47.240;-1.546;2023-02-04T12:04:05;2.30;;;0.50;;
77984;SDS011;67177;47.240;-1.546;2023-02-04T12:06:55;2.13;;;0.60;;
77984;SDS011;67177;47.240;-1.546;2023-02-04T12:09:25;3.03;;;1.07;;
77984;SDS011;67177;47.240;-1.546;2023-02-04T12:12:02;3.65;;;1.20;;
77984;SDS011;67177;47.240;-1.546;2023-02-04T12:16:58;3.85;;;1.00;;
77984;SDS011;67177;47.240;-1.546;2023-02-04T12:19:24;3.42;;;0.90;;
77984;SDS011;67177;47.240;-1.546;2023-02-04T12:21:50;3.10;;;0.87;;
77984;SDS011;67177;47.240;-1.546;2023-02-04T12:24:16;1.50;;;0.50;;
77984;SDS011;67177;47.240;-1.546;2023-02-04T12:26:41;2.07;;;0.67;;
77984;SDS011;67177;47.240;-1.546;2023-02-04T12:29:07;1.90;;;0.60;;
77984;SDS011;67177;47.240;-1.546;2023-02-04T12:31:33;2.30;;;0.60;;
77984;SDS011;67177;47.240;-1.546;2023-02-04T12:34:00;2.85;;;0.82;;
77984;SDS011;67177;47.240;-1.546;2023-02-04T12:36:26;3.67;;;0.85;;
77984;SDS011;67177;47.240;-1.546;2023-02-04T12:38:53;3.63;;;0.90;;
77984;SDS011;67177;47.240;-1.546;2023-02-04T12:41:19;4.35;;;0.98;;
77984;SDS011;67177;47.240;-1.546;2023-02-04T12:43:45;3.20;;;1.00;;
77984;SDS011;67177;47.240;-1.546;2023-02-04T12:46:14;4.00;;;1.00;;
77984;SDS011;67177;47.240;-1.546;2023-02-04T12:48:40;2.47;;;0.63;;
77984;SDS011;67177;47.240;-1.546;2023-02-04T12:51:06;3.83;;;1.03;;
77984;SDS011;67177;47.240;-1.546;2023-02-04T12:53:32;3.05;;;0.90;;
77984;SDS011;67177;47.240;-1.546;2023-02-04T12:55:58;2.67;;;0.80;;
77984;SDS011;67177;47.240;-1.546;2023-02-04T12:58:23;3.43;;;0.73;;
77984;SDS011;67177;47.240;-1.546;2023-02-04T13:00:49;2.80;;;0.80;;
77984;SDS011;67177;47.240;-1.546;2023-02-04T13:03:15;2.30;;;0.70;;
77984;SDS011;67177;47.240;-1.546;2023-02-04T13:05:41;2.80;;;0.70;;
77984;SDS011;67177;47.240;-1.546;2023-02-04T13:08:06;2.40;;;0.73;;
77984;SDS011;67177;47.240;-1.546;2023-02-04T13:10:32;2.33;;;0.65;;
77984;SDS011;67177;47.240;-1.546;2023-02-04T13:12:58;3.63;;;1.10;;
77984;SDS011;67177;47.240;-1.546;2023-02-04T13:15:24;5.95;;;1.70;;
77984;SDS011;67177;47.240;-1.546;2023-02-04T13:17:51;5.63;;;1.60;;
77984;SDS011;67177;47.240;-1.546;2023-02-04T13:20:16;4.27;;;1.50;;
77984;SDS011;67177;47.240;-1.546;2023-02-04T13:22:42;5.68;;;1.70;;
77984;SDS011;67177;47.240;-1.546;2023-02-04T13:25:08;4.43;;;1.60;;
77984;SDS011;67177;47.240;-1.546;2023-02-04T13:27:40;4.40;;;1.33;;
77984;SDS011;67177;47.240;-1.546;2023-02-04T13:30:06;3.65;;;1.20;;
77984;SDS011;67177;47.240;-1.546;2023-02-04T13:32:33;4.28;;;1.38;;
77984;SDS011;67177;47.240;-1.546;2023-02-04T13:34:59;3.70;;;1.23;;
77984;SDS011;67177;47.240;-1.546;2023-02-04T13:37:24;4.05;;;1.10;;
77984;SDS011;67177;47.240;-1.546;2023-02-04T13:39:50;2.90;;;0.90;;
77984;SDS011;67177;47.240;-1.546;2023-02-04T13:42:16;3.47;;;0.98;;
77984;SDS011;67177;47.240;-1.546;2023-02-04T13:44:41;2.77;;;0.73;;
77984;SDS011;67177;47.240;-1.546;2023-02-04T13:47:07;3.27;;;0.87;;
77984;SDS011;67177;47.240;-1.546;2023-02-04T13:49:32;2.30;;;0.70;;
77984;SDS011;67177;47.240;-1.546;2023-02-04T13:51:58;3.97;;;0.80;;
77984;SDS011;67177;47.240;-1.546;2023-02-04T13:54:24;3.17;;;0.80;;
77984;SDS011;67177;47.240;-1.546;2023-02-04T13:56:49;2.20;;;0.70;;
77984;SDS011;67177;47.240;-1.546;2023-02-04T13:59:15;3.20;;;0.83;;
77984;SDS011;67177;47.240;-1.546;2023-02-04T14:01:41;4.03;;;1.25;;
77984;SDS011;67177;47.240;-1.546;2023-02-04T14:04:07;3.65;;;1.13;;
77984;SDS011;67177;47.240;-1.546;2023-02-04T14:06:32;3.17;;;0.93;;
77984;SDS011;67177;47.240;-1.546;2023-02-04T14:09:02;3.50;;;1.00;;
77984;SDS011;67177;47.240;-1.546;2023-02-04T14:11:28;4.85;;;1.75;;
77984;SDS011;67177;47.240;-1.546;2023-02-04T14:13:54;5.87;;;1.77;;
77984;SDS011;67177;47.240;-1.546;2023-02-04T14:16:20;4.70;;;1.45;;
77984;SDS011;67177;47.240;-1.546;2023-02-04T14:18:46;4.70;;;1.30;;
77984;SDS011;67177;47.240;-1.546;2023-02-04T14:21:11;7.20;;;2.70;;
77984;SDS011;67177;47.240;-1.546;2023-02-04T14:23:37;5.40;;;2.00;;
77984;SDS011;67177;47.240;-1.546;2023-02-04T14:26:03;5.53;;;1.90;;
77984;SDS011;67177;47.240;-1.546;2023-02-04T14:28:28;3.95;;;1.23;;
77984;SDS011;67177;47.240;-1.546;2023-02-04T14:30:54;4.75;;;1.30;;
77984;SDS011;67177;47.240;-1.546;2023-02-04T14:33:20;3.90;;;0.90;;
77984;SDS011;67177;47.240;-1.546;2023-02-04T14:35:46;3.28;;;0.90;;
77984;SDS011;67177;47.240;-1.546;2023-02-04T14:38:11;3.57;;;0.80;;
77984;SDS011;67177;47.240;-1.546;2023-02-04T14:40:40;3.58;;;0.90;;
77984;SDS011;67177;47.240;-1.546;2023-02-04T14:43:06;2.88;;;0.75;;
77984;SDS011;67177;47.240;-1.546;2023-02-04T14:45:32;2.40;;;0.60;;
77984;SDS011;67177;47.240;-1.546;2023-02-04T14:47:58;2.17;;;0.67;;
77984;SDS011;67177;47.240;-1.546;2023-02-04T14:50:25;2.30;;;0.60;;